Time;durP1;ratioP1;P1;durP2;ratioP2;P2;SDS_P1;SDS_P2;PMS_P1;PMS_P2;Temp;Humidity;BMP_temperature;BMP_pressure;BME280_temperature;BME280_humidity;BME280_pressure;Samples;Min_cycle;Max_cycle;Signal;HPM_P1;HPM_P2
2021/04/02 00:00:28;;;;;;;42.45;17.58;;;15.70;71.50;;;;;;5074378;28;20052;-79
2021/04/02 00:02:54;;;;;;;39.58;15.82;;;15.70;71.50;;;;;;5075162;28;20043;-78
2021/04/02 00:05:21;;;;;;;43.60;17.25;;;15.70;71.40;;;;;;5074060;28;20021;-78
2021/04/02 00:07:47;;;;;;;37.80;16.52;;;15.60;71.30;;;;;;5075696;28;20024;-78
2021/04/02 00:10:17;;;;;;;37.83;16.60;;;15.70;71.70;;;;;;5075461;28;20024;-78
2021/04/02 00:12:43;;;;;;;41.15;16.60;;;15.60;71.70;;;;;;5075559;28;20436;-78
2021/04/02 00:15:12;;;;;;;38.28;16.60;;;15.60;72.00;;;;;;5074161;28;20033;-78
2021/04/02 00:17:38;;;;;;;46.67;17.75;;;15.50;72.30;;;;;;5074908;28;20017;-78
2021/04/02 00:20:08;;;;;;;38.78;16.48;;;15.50;72.30;;;;;;5075177;28;20025;-78
2021/04/02 00:22:34;;;;;;;39.13;17.30;;;15.50;72.40;;;;;;5075238;28;20044;-78
2021/04/02 00:25:00;;;;;;;43.60;17.38;;;15.50;72.30;;;;;;5075287;28;20103;-78
2021/04/02 00:27:25;;;;;;;42.47;17.20;;;15.50;72.20;;;;;;5075442;28;20482;-78
2021/04/02 00:29:51;;;;;;;39.30;15.73;;;15.40;72.30;;;;;;5075140;28;20028;-78
2021/04/02 00:32:17;;;;;;;42.13;19.65;;;15.40;72.10;;;;;;5075343;28;20613;-78
2021/04/02 00:34:42;;;;;;;46.53;17.13;;;15.40;72.10;;;;;;5074802;28;20027;-78
2021/04/02 00:37:08;;;;;;;42.65;17.10;;;15.40;72.10;;;;;;5074623;28;20025;-78
2021/04/02 00:39:34;;;;;;;49.35;17.70;;;15.40;72.30;;;;;;5074862;28;20032;-78
2021/04/02 00:41:59;;;;;;;40.28;17.13;;;15.40;72.10;;;;;;5073714;28;20441;-78
2021/04/02 00:44:27;;;;;;;43.33;18.88;;;15.40;72.40;;;;;;5074681;28;20063;-78
2021/04/02 00:46:53;;;;;;;49.00;17.42;;;15.40;72.50;;;;;;5074983;28;20028;-78
2021/04/02 00:49:18;;;;;;;37.05;16.42;;;15.30;72.50;;;;;;5073150;28;20028;-78
2021/04/02 00:51:44;;;;;;;44.15;17.98;;;15.30;72.60;;;;;;5074741;28;20017;-78
2021/04/02 00:54:10;;;;;;;46.28;17.73;;;15.20;72.60;;;;;;5074552;28;20540;-78
2021/04/02 00:56:36;;;;;;;46.45;18.23;;;15.30;72.60;;;;;;5074228;28;20020;-78
2021/04/02 00:59:02;;;;;;;37.03;16.80;;;15.30;72.50;;;;;;5073631;28;20170;-78
2021/04/02 01:01:28;;;;;;;47.90;17.10;;;15.30;72.40;;;;;;5073144;28;20035;-78
2021/04/02 01:03:54;;;;;;;50.30;17.92;;;15.30;72.30;;;;;;5073171;28;20025;-78
2021/04/02 01:06:24;;;;;;;42.88;17.83;;;15.20;72.20;;;;;;5074458;28;20036;-78
2021/04/02 01:08:50;;;;;;;50.35;17.90;;;15.20;72.40;;;;;;5074525;28;20017;-78
2021/04/02 01:11:18;;;;;;;41.70;16.95;;;15.20;72.40;;;;;;5069886;28;20021;-78
2021/04/02 01:13:47;;;;;;;37.35;16.95;;;15.20;72.40;;;;;;5068632;28;20451;-79
2021/04/02 01:16:14;;;;;;;46.50;18.77;;;15.20;72.20;;;;;;5074305;28;20017;-78
2021/04/02 01:19:07;;;;;;;41.35;17.95;;;15.20;72.30;;;;;;5074276;28;20036;-78
2021/04/02 01:21:55;;;;;;;40.70;18.00;;;15.10;72.20;;;;;;5072078;28;20032;-78
2021/04/02 01:24:21;;;;;;;40.22;16.70;;;15.10;72.30;;;;;;5072942;28;20046;-78
2021/04/02 01:27:20;;;;;;;39.60;16.15;;;15.10;71.90;;;;;;5073892;28;20111;-78
2021/04/02 01:29:54;;;;;;;43.25;15.57;;;15.10;71.80;;;;;;5074101;28;20032;-78
2021/04/02 01:32:28;;;;;;;46.08;16.48;;;15.10;71.80;;;;;;5074084;28;20028;-78
2021/04/02 01:34:58;;;;;;;39.38;16.13;;;15.10;72.20;;;;;;5074061;28;20015;-78
2021/04/02 01:38:02;;;;;;;41.78;16.55;;;15.10;72.10;;;;;;5073758;28;20034;-78
2021/04/02 01:40:31;;;;;;;44.83;15.20;;;15.10;71.80;;;;;;5051828;28;20028;-78
2021/04/02 01:43:01;;;;;;;35.85;15.90;;;15.10;71.90;;;;;;5073746;28;20104;-78
2021/04/02 01:45:28;;;;;;;41.25;17.05;;;15.00;72.10;;;;;;5073720;28;20056;-78
2021/04/02 01:47:55;;;;;;;39.70;16.00;;;15.00;72.20;;;;;;5072298;28;20044;-78
2021/04/02 01:50:21;;;;;;;36.92;16.48;;;15.00;72.30;;;;;;5073441;28;20103;-78
2021/04/02 01:52:49;;;;;;;35.22;15.45;;;14.90;72.10;;;;;;5073609;28;20020;-78
2021/04/02 01:55:16;;;;;;;41.33;16.33;;;15.00;72.20;;;;;;5073618;28;20021;-79
2021/04/02 01:57:45;;;;;;;40.13;16.33;;;14.90;72.40;;;;;;5073337;28;20024;-78
2021/04/02 02:00:13;;;;;;;40.88;15.70;;;14.90;72.50;;;;;;5073093;28;20028;-78
2021/04/02 02:02:40;;;;;;;40.20;14.73;;;14.90;72.20;;;;;;5073640;28;20367;-77
2021/04/02 02:05:08;;;;;;;34.47;15.70;;;14.90;72.00;;;;;;5072948;28;20560;-78
2021/04/02 02:07:40;;;;;;;48.00;15.80;;;14.90;72.20;;;;;;5073252;28;20075;-78
2021/04/02 02:10:08;;;;;;;41.35;15.93;;;14.80;72.20;;;;;;5073108;28;20032;-78
2021/04/02 02:12:37;;;;;;;36.72;16.30;;;14.80;72.40;;;;;;5072950;28;20027;-78
2021/04/02 02:15:07;;;;;;;37.47;15.52;;;14.80;72.20;;;;;;5072088;28;20107;-78
2021/04/02 02:17:33;;;;;;;37.75;13.50;;;14.80;72.20;;;;;;5073040;28;20371;-78
2021/04/02 02:20:06;;;;;;;38.75;14.38;;;14.80;72.10;;;;;;5073183;28;20428;-78
2021/04/02 02:22:33;;;;;;;34.72;14.45;;;14.80;72.20;;;;;;5072876;28;20122;-78
2021/04/02 02:24:58;;;;;;;37.75;15.48;;;14.80;72.00;;;;;;5071833;28;20024;-78
2021/04/02 02:27:24;;;;;;;35.58;15.18;;;14.80;72.10;;;;;;5072905;28;20028;-78
2021/04/02 02:29:50;;;;;;;37.65;13.93;;;14.70;72.00;;;;;;5072767;28;20031;-78
2021/04/02 02:32:17;;;;;;;49.17;15.23;;;14.80;71.70;;;;;;5071411;28;20032;-78
2021/04/02 02:34:42;;;;;;;39.47;15.95;;;14.80;71.30;;;;;;5072780;28;20016;-78
2021/04/02 02:37:08;;;;;;;35.30;13.88;;;14.80;71.00;;;;;;5072660;28;20027;-78
2021/04/02 02:39:35;;;;;;;32.50;14.02;;;14.80;71.00;;;;;;5072749;28;20042;-78
2021/04/02 02:42:06;;;;;;;40.28;15.23;;;14.80;71.00;;;;;;5072286;28;20085;-78
2021/04/02 02:44:33;;;;;;;35.08;14.85;;;14.80;70.90;;;;;;5073025;28;20032;-78
2021/04/02 02:47:05;;;;;;;33.47;13.57;;;14.90;70.70;;;;;;5077094;28;20504;-78
2021/04/02 02:49:33;;;;;;;38.17;15.25;;;14.90;70.70;;;;;;5073482;28;20012;-78
2021/04/02 02:52:04;;;;;;;39.00;13.90;;;14.90;71.00;;;;;;5072263;28;20029;-78
2021/04/02 02:54:31;;;;;;;38.72;15.65;;;14.80;71.20;;;;;;5071383;28;20059;-78
2021/04/02 02:56:58;;;;;;;36.47;15.05;;;14.80;71.30;;;;;;5072504;28;20087;-78
2021/04/02 02:59:26;;;;;;;37.08;15.77;;;14.80;71.40;;;;;;5073559;28;20024;-78
2021/04/02 03:01:53;;;;;;;32.65;13.95;;;14.70;71.40;;;;;;5075015;28;20033;-78
2021/04/02 03:04:20;;;;;;;38.80;15.23;;;14.70;71.50;;;;;;5075878;28;20024;-78
2021/04/02 03:06:47;;;;;;;41.90;14.88;;;14.70;71.50;;;;;;5075047;28;20020;-78
2021/04/02 03:09:16;;;;;;;40.20;14.52;;;14.70;71.50;;;;;;5076195;28;20036;-79
2021/04/02 03:11:43;;;;;;;34.60;13.20;;;14.60;71.40;;;;;;5074908;28;20063;-78
2021/04/02 03:14:18;;;;;;;33.20;13.50;;;14.60;71.50;;;;;;5076705;28;20028;-78
2021/04/02 03:16:49;;;;;;;45.25;14.10;;;14.60;71.60;;;;;;5076464;28;20052;-78
2021/04/02 03:19:18;;;;;;;39.67;13.52;;;14.60;71.70;;;;;;5076425;28;20024;-78
2021/04/02 03:21:46;;;;;;;39.25;14.00;;;14.60;71.30;;;;;;5075794;28;20024;-78
2021/04/02 03:24:13;;;;;;;35.78;14.35;;;14.60;71.10;;;;;;5076339;28;20079;-78
2021/04/02 03:26:43;;;;;;;41.55;13.75;;;14.60;71.30;;;;;;5076147;28;20073;-78
2021/04/02 03:29:12;;;;;;;34.33;14.80;;;14.60;71.50;;;;;;5076105;28;20111;-78
2021/04/02 03:31:39;;;;;;;34.70;13.02;;;14.60;71.50;;;;;;5076113;28;20027;-78
2021/04/02 03:34:08;;;;;;;35.30;14.43;;;14.60;71.80;;;;;;5076203;28;20028;-78
2021/04/02 03:36:35;;;;;;;36.33;13.00;;;14.60;71.90;;;;;;5075989;28;20017;-78
2021/04/02 03:39:05;;;;;;;38.78;14.10;;;14.50;72.00;;;;;;5076145;28;20032;-78
2021/04/02 03:41:33;;;;;;;35.28;14.00;;;14.50;72.00;;;;;;5069896;28;20033;-78
2021/04/02 03:44:00;;;;;;;27.98;13.18;;;14.50;72.00;;;;;;5074651;28;20013;-78
2021/04/02 03:46:28;;;;;;;30.73;12.90;;;14.50;72.10;;;;;;5074728;28;20419;-78
2021/04/02 03:48:59;;;;;;;31.33;13.88;;;14.50;72.50;;;;;;5075919;28;20138;-78
2021/04/02 03:51:28;;;;;;;36.22;13.60;;;14.40;72.60;;;;;;5075957;28;20020;-78
2021/04/02 03:54:00;;;;;;;29.33;13.80;;;14.30;73.00;;;;;;5076048;28;20024;-78
2021/04/02 03:56:29;;;;;;;29.65;13.60;;;14.20;73.10;;;;;;5076047;28;20028;-78
2021/04/02 03:58:56;;;;;;;28.02;13.07;;;14.20;73.40;;;;;;5075830;28;20024;-78
2021/04/02 04:01:25;;;;;;;36.85;14.57;;;14.30;73.60;;;;;;5074435;28;20441;-79
2021/04/02 04:03:53;;;;;;;36.85;14.95;;;14.20;73.60;;;;;;5075690;28;20056;-78
2021/04/02 04:06:20;;;;;;;35.40;13.82;;;14.20;73.40;;;;;;5075739;28;20029;-79
2021/04/02 04:08:52;;;;;;;35.38;14.60;;;14.10;73.50;;;;;;5075835;28;20100;-78
2021/04/02 04:11:21;;;;;;;41.25;14.07;;;14.10;73.70;;;;;;5074208;28;20028;-78
2021/04/02 04:13:49;;;;;;;37.85;14.45;;;14.10;74.10;;;;;;5074529;28;20020;-78
2021/04/02 04:16:19;;;;;;;32.42;13.63;;;14.00;74.10;;;;;;5075543;28;20024;-78
2021/04/02 04:18:47;;;;;;;36.95;14.25;;;14.00;74.10;;;;;;5074151;28;20021;-78
2021/04/02 04:21:13;;;;;;;32.38;12.52;;;14.00;74.30;;;;;;5074206;28;20437;-79
2021/04/02 04:23:41;;;;;;;35.40;14.38;;;14.00;74.30;;;;;;5075240;28;20045;-78
2021/04/02 04:26:09;;;;;;;35.63;14.73;;;14.00;74.50;;;;;;5075422;28;20115;-78
2021/04/02 04:28:37;;;;;;;38.00;14.77;;;13.90;74.60;;;;;;5074053;28;20142;-78
2021/04/02 04:31:06;;;;;;;37.25;14.52;;;13.90;74.70;;;;;;5075054;28;20021;-78
2021/04/02 04:33:33;;;;;;;32.80;13.60;;;13.90;74.60;;;;;;5075392;28;20012;-78
2021/04/02 04:36:00;;;;;;;35.30;14.43;;;13.90;74.80;;;;;;5075344;28;20486;-78
2021/04/02 04:38:27;;;;;;;36.67;14.60;;;13.90;74.80;;;;;;5075115;28;20020;-78
2021/04/02 04:40:55;;;;;;;36.05;13.45;;;13.90;74.90;;;;;;5079554;28;20455;-78
2021/04/02 04:43:23;;;;;;;35.90;15.05;;;13.80;74.80;;;;;;5075228;28;20059;-78
2021/04/02 04:45:49;;;;;;;32.22;14.45;;;13.80;75.00;;;;;;5075007;28;20019;-78
2021/04/02 04:48:15;;;;;;;33.47;13.35;;;13.80;75.10;;;;;;5074917;28;20485;-78
2021/04/02 04:50:41;;;;;;;40.28;15.52;;;13.80;75.00;;;;;;5073092;28;20025;-79
2021/04/02 04:53:24;;;;;;;39.92;14.82;;;13.80;74.90;;;;;;5073529;28;20070;-78
2021/04/02 04:55:53;;;;;;;40.00;14.55;;;13.70;75.00;;;;;;5074886;28;20029;-78
2021/04/02 04:58:21;;;;;;;35.72;14.30;;;13.70;74.70;;;;;;5074825;28;20048;-79
2021/04/02 05:00:50;;;;;;;43.70;13.85;;;13.80;74.40;;;;;;5074326;28;20097;-78
2021/04/02 05:03:22;;;;;;;34.50;14.57;;;13.70;74.60;;;;;;5072841;28;20060;-78
2021/04/02 05:05:53;;;;;;;;;;;13.80;74.90;;;;;;5053939;28;20057;-78
2021/04/02 05:08:22;;;;;;;34.90;14.20;;;13.80;75.10;;;;;;5054634;28;19905;-78
2021/04/02 05:10:51;;;;;;;30.33;14.82;;;13.70;75.30;;;;;;5060175;28;20052;-78
2021/04/02 05:13:19;;;;;;;35.03;14.50;;;13.70;75.40;;;;;;5074164;28;20021;-79
2021/04/02 05:15:45;;;;;;;28.88;13.95;;;13.70;75.60;;;;;;5071504;28;20017;-78
2021/04/02 05:18:13;;;;;;;39.70;13.43;;;13.70;75.30;;;;;;5074503;28;20024;-78
2021/04/02 05:20:43;;;;;;;36.80;13.77;;;13.70;75.20;;;;;;5073960;28;20032;-78
2021/04/02 05:23:12;;;;;;;29.52;12.82;;;13.70;75.40;;;;;;5073668;28;20079;-78
2021/04/02 05:25:37;;;;;;;29.90;12.75;;;13.70;75.50;;;;;;5073427;28;20024;-78
2021/04/02 05:28:04;;;;;;;34.10;14.48;;;13.70;75.20;;;;;;5074311;28;20031;-78
2021/04/02 05:30:31;;;;;;;32.78;14.05;;;13.80;75.10;;;;;;5073708;28;20054;-78
2021/04/02 05:32:57;;;;;;;36.20;13.73;;;13.70;74.80;;;;;;5074239;28;20024;-78
2021/04/02 05:35:23;;;;;;;30.60;14.60;;;13.80;74.70;;;;;;5073857;28;20434;-78
2021/04/02 05:37:49;;;;;;;34.33;15.13;;;13.80;74.50;;;;;;5073955;28;20051;-78
2021/04/02 05:40:16;;;;;;;36.35;14.85;;;13.80;74.40;;;;;;5073908;28;20067;-79
2021/04/02 05:42:51;;;;;;;39.20;16.75;;;13.80;74.60;;;;;;5073955;28;20028;-78
2021/04/02 05:45:18;;;;;;;44.42;16.08;;;13.90;74.70;;;;;;5073401;28;20146;-78
2021/04/02 05:47:47;;;;;;;44.95;16.05;;;13.90;74.70;;;;;;5073521;28;20028;-78
2021/04/02 05:50:14;;;;;;;33.33;15.50;;;14.00;74.70;;;;;;5072175;28;20025;-79
2021/04/02 05:52:44;;;;;;;39.05;17.40;;;14.00;74.50;;;;;;5072394;28;20073;-78
2021/04/02 05:55:11;;;;;;;36.15;15.30;;;14.00;74.50;;;;;;5073487;28;20162;-78
2021/04/02 05:57:38;;;;;;;36.10;15.60;;;14.00;74.50;;;;;;5073685;28;20020;-78
2021/04/02 06:00:05;;;;;;;34.15;15.00;;;14.00;74.70;;;;;;5073087;28;20107;-78
2021/04/02 06:02:31;;;;;;;40.88;14.73;;;14.00;74.50;;;;;;5073320;28;20078;-78
2021/04/02 06:04:59;;;;;;;36.17;14.38;;;14.00;74.80;;;;;;5073220;28;20468;-78
2021/04/02 06:07:25;;;;;;;40.25;15.05;;;14.10;74.90;;;;;;5071975;28;20468;-78
2021/04/02 06:09:51;;;;;;;37.63;15.75;;;14.10;75.10;;;;;;5073208;28;20139;-78
2021/04/02 06:12:17;;;;;;;39.72;15.05;;;14.10;75.50;;;;;;5072930;28;20027;-78
2021/04/02 06:14:43;;;;;;;39.80;15.20;;;14.20;75.40;;;;;;5073230;28;20396;-78
2021/04/02 06:17:09;;;;;;;41.30;15.15;;;14.20;75.60;;;;;;5073190;28;20020;-78
2021/04/02 06:19:35;;;;;;;42.58;15.45;;;14.20;75.40;;;;;;5073316;28;20031;-78
2021/04/02 06:22:01;;;;;;;38.33;15.13;;;14.30;75.40;;;;;;5073198;28;20028;-78
2021/04/02 06:25:01;;;;;;;39.47;15.75;;;14.30;75.20;;;;;;5073121;28;20032;-78
2021/04/02 06:27:28;;;;;;;41.38;16.65;;;14.40;74.70;;;;;;5069008;28;20040;-78
2021/04/02 06:30:02;;;;;;;44.17;16.48;;;14.50;74.70;;;;;;5069334;28;20479;-78
2021/04/02 06:32:37;;;;;;;38.72;15.25;;;14.50;74.60;;;;;;5068816;28;20111;-78
2021/04/02 06:35:08;;;;;;;33.38;14.85;;;14.50;74.90;;;;;;5059900;28;20048;-76
2021/04/02 06:37:35;;;;;;;31.40;14.27;;;14.60;75.30;;;;;;5072342;28;20386;-75
2021/04/02 06:40:01;;;;;;;41.97;16.65;;;14.60;75.90;;;;;;5071961;28;20120;-76
2021/04/02 06:42:31;;;;;;;43.97;15.75;;;14.70;75.50;;;;;;5071048;28;20545;-75
2021/04/02 06:45:02;;;;;;;35.25;15.02;;;14.80;75.20;;;;;;5071157;28;20028;-76
2021/04/02 06:47:41;;;;;;;44.03;16.92;;;14.80;75.00;;;;;;5071963;28;20020;-75
2021/04/02 06:50:24;;;;;;;39.38;16.85;;;14.90;75.80;;;;;;5069573;28;20135;-75
2021/04/02 06:52:55;;;;;;;43.22;18.33;;;14.90;76.90;;;;;;5067304;28;20042;-75
2021/04/02 06:55:23;;;;;;;46.72;19.25;;;15.00;78.30;;;;;;5071956;28;20047;-75
2021/04/02 06:57:50;;;;;;;58.35;21.65;;;15.00;78.40;;;;;;5067485;28;20070;-75
2021/04/02 07:00:30;;;;;;;63.03;24.20;;;15.00;78.80;;;;;;5069906;28;20107;-75
2021/04/02 07:02:56;;;;;;;59.25;22.65;;;15.10;79.40;;;;;;5069457;28;20033;-78
2021/04/02 07:05:26;;;;;;;71.90;24.10;;;15.10;79.30;;;;;;5069280;28;20093;-78
2021/04/02 07:08:03;;;;;;;52.97;22.85;;;15.20;79.20;;;;;;5070043;28;20052;-78
2021/04/02 07:10:29;;;;;;;55.35;23.73;;;15.20;78.90;;;;;;5069280;28;20043;-77
2021/04/02 07:12:57;;;;;;;38.35;16.67;;;15.30;79.10;;;;;;5067797;28;20100;-77
2021/04/02 07:15:23;;;;;;;54.55;22.80;;;15.30;78.70;;;;;;5069987;28;20020;-78
2021/04/02 07:17:50;;;;;;;53.63;22.13;;;15.30;78.70;;;;;;5070335;28;20031;-77
2021/04/02 07:20:16;;;;;;;60.10;24.42;;;15.40;77.80;;;;;;5065784;28;20367;-77
2021/04/02 07:22:42;;;;;;;59.33;23.08;;;15.50;78.70;;;;;;5070070;28;20053;-77
2021/04/02 07:25:10;;;;;;;50.38;22.75;;;15.50;78.90;;;;;;5071507;28;20449;-77
2021/04/02 07:27:38;;;;;;;54.80;23.40;;;15.60;78.50;;;;;;5072090;28;20051;-77
2021/04/02 07:30:07;;;;;;;54.50;24.13;;;15.60;76.70;;;;;;5071587;28;20543;-77
2021/04/02 07:32:35;;;;;;;53.95;23.98;;;15.70;75.80;;;;;;5071234;28;20025;-77
2021/04/02 07:35:01;;;;;;;48.65;22.45;;;15.70;76.30;;;;;;5071481;28;20413;-77
2021/04/02 07:37:37;;;;;;;52.45;23.25;;;15.80;77.10;;;;;;5071355;28;20020;-77
2021/04/02 07:40:07;;;;;;;47.72;21.23;;;15.80;77.00;;;;;;5071811;28;20060;-78
2021/04/02 07:42:33;;;;;;;57.67;25.00;;;15.80;76.90;;;;;;5070448;28;20120;-77
2021/04/02 07:44:59;;;;;;;57.95;23.20;;;15.80;76.60;;;;;;5073133;28;20572;-77
2021/04/02 07:47:25;;;;;;;57.03;22.90;;;15.90;76.30;;;;;;5075773;28;20021;-77
2021/04/02 07:49:51;;;;;;;59.40;24.50;;;15.90;76.30;;;;;;5074569;28;20028;-77
2021/04/02 07:52:28;;;;;;;64.32;25.25;;;15.90;75.20;;;;;;5076869;28;20028;-77
2021/04/02 07:55:08;;;;;;;66.28;25.70;;;15.90;75.90;;;;;;5071930;28;20078;-77
2021/04/02 07:58:07;;;;;;;57.45;25.98;;;16.00;76.00;;;;;;5073202;28;20029;-77
2021/04/02 08:00:35;;;;;;;55.42;24.83;;;16.00;75.40;;;;;;5075024;28;20083;-77
2021/04/02 08:03:15;;;;;;;59.70;23.83;;;16.10;76.40;;;;;;5075282;28;20029;-78
2021/04/02 08:06:03;;;;;;;49.88;22.33;;;16.10;73.80;;;;;;5075058;28;20035;-77
2021/04/02 08:08:40;;;;;;;59.50;24.15;;;16.20;74.60;;;;;;5071039;28;20033;-77
2021/04/02 08:11:16;;;;;;;56.03;24.00;;;16.20;75.10;;;;;;5074903;28;20081;-77
2021/04/02 08:13:57;;;;;;;50.17;22.15;;;16.30;73.50;;;;;;5073242;28;20032;-72
2021/04/02 08:16:33;;;;;;;54.40;23.63;;;16.30;73.80;;;;;;5074117;28;20115;-72
2021/04/02 08:19:15;;;;;;;55.28;24.23;;;16.30;74.20;;;;;;5072599;28;20044;-72
2021/04/02 08:21:42;;;;;;;;;;;16.30;75.60;;;;;;5073893;28;20070;-72
2021/04/02 08:24:10;;;;;;;58.90;25.52;;;16.40;77.00;;;;;;5073894;28;19970;-72
2021/04/02 08:26:37;;;;;;;66.13;25.65;;;16.40;76.90;;;;;;5072692;28;20032;-72
2021/04/02 08:29:08;;;;;;;54.20;23.27;;;16.50;76.90;;;;;;5073494;28;20382;-72
2021/04/02 08:31:35;;;;;;;54.00;23.20;;;16.60;76.50;;;;;;5073633;28;20025;-72
2021/04/02 08:34:02;;;;;;;59.65;23.02;;;16.60;74.60;;;;;;5073250;28;20116;-72
2021/04/02 08:36:29;;;;;;;52.15;21.73;;;16.60;73.40;;;;;;5072376;28;21186;-72
2021/04/02 08:38:55;;;;;;;54.83;20.95;;;16.70;73.20;;;;;;5073957;28;20024;-72
2021/04/02 08:41:31;;;;;;;48.35;20.65;;;16.70;72.90;;;;;;5069147;28;20089;-72
2021/04/02 08:44:01;;;;;;;59.22;24.52;;;16.70;73.00;;;;;;5073973;28;20467;-72
2021/04/02 08:46:35;;;;;;;54.22;24.23;;;16.80;73.60;;;;;;5073941;28;20059;-72
2021/04/02 08:49:01;;;;;;;64.60;24.33;;;16.80;73.70;;;;;;5073398;28;20501;-72
2021/04/02 08:51:27;;;;;;;57.88;23.52;;;16.80;74.00;;;;;;5073708;28;20020;-73
2021/04/02 08:53:53;;;;;;;47.40;20.60;;;16.80;75.50;;;;;;5073728;28;20042;-72
2021/04/02 08:56:21;;;;;;;53.15;21.40;;;16.90;75.60;;;;;;5072192;28;20026;-72
2021/04/02 08:58:47;;;;;;;52.90;20.27;;;16.90;74.90;;;;;;5080355;28;20033;-72
2021/04/02 09:01:16;;;;;;;49.80;21.35;;;17.00;72.90;;;;;;5073590;28;20017;-72
2021/04/02 09:03:42;;;;;;;48.47;20.75;;;17.00;72.20;;;;;;5072700;28;20725;-73
2021/04/02 09:06:09;;;;;;;44.47;19.33;;;17.10;73.80;;;;;;5073532;28;20069;-72
2021/04/02 09:08:36;;;;;;;49.10;19.92;;;17.20;73.20;;;;;;5073159;28;20024;-72
2021/04/02 09:11:08;;;;;;;53.45;19.58;;;17.30;73.10;;;;;;5072881;28;20035;-72
2021/04/02 09:13:43;;;;;;;48.97;19.73;;;17.30;73.00;;;;;;5071481;28;20029;-72
2021/04/02 09:16:14;;;;;;;58.05;21.27;;;17.30;73.00;;;;;;5072760;28;20021;-72
2021/04/02 09:18:53;;;;;;;51.67;18.33;;;17.40;72.10;;;;;;5073241;28;20013;-72
2021/04/02 09:21:22;;;;;;;40.13;17.17;;;17.40;72.40;;;;;;5065472;28;20024;-72
2021/04/02 09:23:53;;;;;;;40.50;16.38;;;17.40;74.00;;;;;;5068186;28;20047;-72
2021/04/02 09:26:22;;;;;;;54.83;17.70;;;17.40;71.20;;;;;;5073069;28;20048;-72
2021/04/02 09:28:48;;;;;;;43.42;16.25;;;17.50;72.70;;;;;;5072427;28;20111;-72
2021/04/02 09:31:20;;;;;;;41.28;15.48;;;17.60;72.70;;;;;;5072928;28;20071;-72
2021/04/02 09:33:49;;;;;;;67.38;18.38;;;17.60;72.00;;;;;;5072811;28;20475;-72
2021/04/02 09:36:16;;;;;;;52.00;19.95;;;17.70;70.60;;;;;;5071609;28;20024;-73
2021/04/02 09:38:42;;;;;;;44.30;17.42;;;17.90;68.50;;;;;;5072341;28;20382;-72
2021/04/02 09:41:10;;;;;;;46.17;18.15;;;17.90;67.80;;;;;;5071816;28;20040;-72
2021/04/02 09:43:53;;;;;;;41.33;17.17;;;17.90;67.30;;;;;;5071207;28;20029;-72
2021/04/02 09:46:42;;;;;;;42.33;16.67;;;18.00;67.60;;;;;;5071906;28;20585;-73
2021/04/02 09:49:09;;;;;;;41.28;15.75;;;18.00;68.30;;;;;;5072503;28;20025;-72
2021/04/02 09:51:44;;;;;;;49.65;17.17;;;17.90;69.00;;;;;;5071155;28;20090;-73
2021/04/02 09:54:11;;;;;;;46.10;16.10;;;17.90;69.60;;;;;;5067284;28;20025;-73
2021/04/02 09:56:38;;;;;;;43.15;17.10;;;18.00;67.70;;;;;;5068517;28;20414;-72
2021/04/02 09:59:05;;;;;;;45.25;17.17;;;18.10;67.50;;;;;;5072357;28;20017;-73
2021/04/02 10:01:32;;;;;;;48.35;17.85;;;18.20;69.90;;;;;;5071857;28;20036;-73
2021/04/02 10:03:59;;;;;;;43.30;16.60;;;18.40;67.40;;;;;;5070871;28;20103;-72
2021/04/02 10:06:24;;;;;;;40.88;16.75;;;18.50;67.10;;;;;;5071539;28;20055;-72
2021/04/02 10:08:50;;;;;;;43.67;16.50;;;18.40;66.80;;;;;;5070599;28;20478;-72
2021/04/02 10:11:16;;;;;;;41.00;15.65;;;18.40;68.10;;;;;;5071641;28;20032;-72
2021/04/02 10:13:42;;;;;;;39.38;15.90;;;18.50;65.10;;;;;;5070019;28;20096;-73
2021/04/02 10:16:08;;;;;;;30.85;15.30;;;18.50;65.10;;;;;;5071307;28;20021;-72
2021/04/02 10:18:36;;;;;;;41.92;14.98;;;18.60;67.40;;;;;;5071803;28;20024;-72
2021/04/02 10:21:04;;;;;;;38.92;15.48;;;18.60;68.20;;;;;;5066264;28;20111;-72
2021/04/02 10:23:30;;;;;;;42.75;16.35;;;18.70;66.30;;;;;;5071370;28;20044;-72
2021/04/02 10:25:56;;;;;;;42.42;15.38;;;18.70;65.70;;;;;;5072050;28;20070;-72
2021/04/02 10:28:23;;;;;;;46.55;18.80;;;18.80;68.40;;;;;;5070067;28;20027;-73
2021/04/02 10:30:49;;;;;;;42.35;17.08;;;18.80;64.70;;;;;;5069564;28;20115;-72
2021/04/02 10:33:15;;;;;;;52.55;18.70;;;18.80;67.50;;;;;;5070599;28;20027;-72
2021/04/02 10:35:41;;;;;;;45.53;19.75;;;18.90;68.10;;;;;;5070434;28;20087;-72
2021/04/02 10:38:07;;;;;;;44.88;18.60;;;18.90;65.90;;;;;;5069910;28;20032;-72
2021/04/02 10:40:33;;;;;;;41.55;17.58;;;18.90;66.80;;;;;;5070151;28;20044;-72
2021/04/02 10:42:59;;;;;;;40.75;17.40;;;19.00;67.70;;;;;;5063520;28;20115;-72
2021/04/02 10:45:25;;;;;;;51.15;19.65;;;19.10;69.70;;;;;;5060319;28;20108;-72
2021/04/02 10:47:51;;;;;;;44.30;19.35;;;19.20;69.10;;;;;;5066352;28;20028;-72
2021/04/02 10:50:17;;;;;;;45.72;19.00;;;19.40;70.20;;;;;;5066251;28;20036;-72
2021/04/02 10:52:43;;;;;;;50.00;20.00;;;19.40;68.90;;;;;;5066654;28;20044;-72
2021/04/02 10:55:10;;;;;;;44.58;19.20;;;19.30;69.70;;;;;;5066348;28;20055;-72
2021/04/02 10:57:36;;;;;;;61.03;19.40;;;19.60;66.40;;;;;;5067085;28;20024;-72
2021/04/02 11:00:04;;;;;;;67.60;20.35;;;19.70;66.50;;;;;;5068384;28;20028;-72
2021/04/02 11:02:30;;;;;;;51.65;21.05;;;19.70;66.90;;;;;;5067441;28;20032;-73
2021/04/02 11:04:58;;;;;;;51.88;20.73;;;19.80;68.70;;;;;;5065682;28;20039;-72
2021/04/02 11:07:24;;;;;;;51.25;20.52;;;19.80;65.00;;;;;;5064169;28;20027;-72
2021/04/02 11:09:49;;;;;;;47.85;20.55;;;20.00;69.10;;;;;;5064268;28;20618;-73
2021/04/02 11:12:15;;;;;;;50.10;21.75;;;20.10;67.00;;;;;;5058782;28;20025;-73
2021/04/02 11:14:41;;;;;;;57.00;22.08;;;20.20;67.60;;;;;;5065496;28;20025;-72
2021/04/02 11:17:06;;;;;;;56.67;24.13;;;20.10;65.40;;;;;;5065749;28;20032;-72
2021/04/02 11:19:32;;;;;;;50.97;22.55;;;20.10;66.20;;;;;;5066828;28;20029;-72
2021/04/02 11:21:58;;;;;;;58.00;24.92;;;20.20;65.70;;;;;;5071036;28;20017;-73
2021/04/02 11:24:24;;;;;;;53.53;23.75;;;20.30;64.20;;;;;;5068543;28;20613;-72
2021/04/02 11:26:50;;;;;;;48.92;21.73;;;20.30;68.00;;;;;;5070410;28;20040;-72
2021/04/02 11:29:16;;;;;;;59.08;23.77;;;20.30;64.90;;;;;;5073148;28;20100;-72
2021/04/02 11:31:41;;;;;;;57.97;22.70;;;20.30;65.70;;;;;;5073387;28;20020;-72
2021/04/02 11:34:07;;;;;;;51.65;22.63;;;20.40;64.90;;;;;;5074415;28;20017;-72
2021/04/02 11:36:33;;;;;;;51.08;22.50;;;20.50;64.70;;;;;;5075122;28;20020;-72
2021/04/02 11:38:58;;;;;;;50.20;22.83;;;20.60;64.30;;;;;;5075014;28;20035;-73
2021/04/02 11:41:24;;;;;;;57.78;23.90;;;20.70;62.10;;;;;;5071536;28;20025;-73
2021/04/02 11:43:50;;;;;;;59.67;25.40;;;20.70;62.60;;;;;;5073111;28;20047;-72
2021/04/02 11:46:16;;;;;;;55.05;24.05;;;20.70;62.80;;;;;;5074876;28;20035;-73
2021/04/02 11:48:41;;;;;;;59.42;25.23;;;20.80;64.50;;;;;;5074257;28;20077;-73
2021/04/02 11:51:07;;;;;;;62.53;26.23;;;20.90;64.80;;;;;;5074416;28;20112;-72
2021/04/02 11:53:33;;;;;;;60.35;24.42;;;21.00;63.30;;;;;;5074440;28;20100;-73
2021/04/02 11:55:58;;;;;;;61.50;26.75;;;21.10;63.40;;;;;;5073852;28;20031;-72
2021/04/02 11:58:24;;;;;;;59.85;24.83;;;21.10;59.80;;;;;;5071316;28;20017;-72
2021/04/02 12:00:50;;;;;;;62.70;23.75;;;21.20;60.40;;;;;;5072898;28;20118;-72
2021/04/02 12:03:16;;;;;;;60.80;24.58;;;21.20;62.60;;;;;;5074409;28;20099;-73
2021/04/02 12:05:41;;;;;;;61.72;25.02;;;21.40;59.70;;;;;;5073805;28;20490;-73
2021/04/02 12:08:07;;;;;;;67.57;24.95;;;21.50;59.50;;;;;;5074628;28;20031;-72
2021/04/02 12:10:33;;;;;;;59.65;24.20;;;21.50;59.30;;;;;;5074138;28;20142;-73
2021/04/02 12:12:59;;;;;;;65.97;25.02;;;21.60;59.80;;;;;;5066905;28;21000;-72
2021/04/02 12:15:24;;;;;;;65.18;24.80;;;21.60;58.70;;;;;;5074140;28;20089;-73
2021/04/02 12:17:50;;;;;;;66.75;26.17;;;21.80;59.70;;;;;;5073916;28;20028;-73
2021/04/02 12:20:18;;;;;;;67.72;24.90;;;21.80;58.50;;;;;;5073656;28;20475;-72
2021/04/02 12:22:44;;;;;;;67.97;25.38;;;21.90;58.20;;;;;;5074135;28;20044;-73
2021/04/02 12:25:12;;;;;;;65.63;27.92;;;21.90;59.60;;;;;;5074469;28;20035;-72
2021/04/02 12:27:38;;;;;;;64.05;25.65;;;21.90;59.20;;;;;;5073066;28;20021;-72
2021/04/02 12:30:06;;;;;;;59.88;26.88;;;22.10;60.70;;;;;;5073493;28;20032;-72
2021/04/02 12:32:32;;;;;;;64.80;26.40;;;22.20;58.70;;;;;;5071091;28;20077;-72
2021/04/02 12:34:59;;;;;;;61.30;26.30;;;22.40;61.10;;;;;;5072424;28;20113;-72